Dakar, Senegal

9:13 AM GMT on August 29, 2014 (GMT +0000)
Ngor Almadies | Change Station
CLOSE
Current Station
Personal Weather Station
Location: Dakar, DAKAR
Elevation: 46 ft
Nearby Weather Stations

Elev 46 ft 14.74 °N, 17.51 °W | Updated 2 seconds ago

Scattered Clouds
Scattered Clouds
82.9 °F
Feels Like 91 °F
N
4.0
Wind Variable Wind from SW
Gusts 6.0 mph

Today
High -- | Low -- °F
--% Chance of Precip.
Yesterday
High -- | Low -- °F
Precip. -- in
6:57 AM 7:24 PM
Waxing Crescent, 13% visible
Pressure 29.89 in
Visibility 6.2 miles
Clouds Scattered Clouds 900 ft
Heat Index 91 °F
Dew Point 76 °F
Humidity 79%
Rainfall 0.00 in
Snow Depth Not available.
UV 2 out of 12
Pollen Not available.
Air Quality Not available.
Flu Activity Not available.
METAR GOOY 290900Z 32007KT 280V340 9999 SCT009 28/24 Q1012 NOSIG

More Conditions Fewer Conditions

Pressure 29.89 in
Visibility 6.2 miles
Clouds Scattered Clouds 900 ft
Heat Index 91 °F
Dew Point 76 °F
Humidity 79%
Rainfall 0.00 in
Snow Depth Not available.
UV 2 out of 12
Pollen Not available.
Air Quality Not available.
Flu Activity Not available.
METAR GOOY 290900Z 32007KT 280V340 9999 SCT009 28/24 Q1012 NOSIG

More Conditions Fewer Conditions

10-Day Weather Forecast

Almanac

Astronomy

Aug. 29, 2014 Rise Set
Actual Time 6:57 AM GMT 7:24 PM GMT
Civil Twilight 6:35 AM GMT 7:45 PM GMT
Nautical Twilight 6:10 AM GMT 8:11 PM GMT
Astronomical Twilight 5:44 AM GMT 8:36 PM GMT
Moon 9:55 AM GMT 9:58 PM GMT
Length of Visible Light 13h 09m
Length of Day
12h 26m
Tomorrow will be 0m 47s shorter.
Waxing Crescent, 13% of the Moon is Illuminated
Today
Waxing Crescent
Sep 2
First Quarter
Sep 8
Full
Sep 15
Last Quarter
Sep 24
New

Yesterday's Extremes

Country Highs Country Lows

Community

WunderPhotos

Upload Photos

1,748,203 photos uploaded!

Nearby

Snow Depth

Not available.

Earthquake Activity

City Distance Mag. Time & Date
No recent earthquake activity has been reported nearby.
Minimum magnitude displayed is 2.5.

Coastal Water Temperatures

Place Temperature
No Stations Reporting

Nearby Weather Stations